sensor_id;sensor_type;location;lat;lon;timestamp;temperature;humidity
16066;DHT22;8137;48.952;8.970;2023-11-19T00:02:08;7.60;99.90
16066;DHT22;8137;48.952;8.970;2023-11-19T00:04:37;7.60;99.90
16066;DHT22;8137;48.952;8.970;2023-11-19T00:07:04;7.70;99.90
16066;DHT22;8137;48.952;8.970;2023-11-19T00:09:32;7.70;99.90
16066;DHT22;8137;48.952;8.970;2023-11-19T00:11:58;7.60;99.90
16066;DHT22;8137;48.952;8.970;2023-11-19T00:14:26;7.60;99.90
16066;DHT22;8137;48.952;8.970;2023-11-19T00:16:51;7.60;99.90
16066;DHT22;8137;48.952;8.970;2023-11-19T00:19:19;7.60;99.90
16066;DHT22;8137;48.952;8.970;2023-11-19T00:21:44;7.70;99.90
16066;DHT22;8137;48.952;8.970;2023-11-19T00:24:11;7.60;99.90
16066;DHT22;8137;48.952;8.970;2023-11-19T00:26:38;7.60;99.90
16066;DHT22;8137;48.952;8.970;2023-11-19T00:29:04;7.60;99.90
16066;DHT22;8137;48.952;8.970;2023-11-19T00:31:29;7.60;99.90
16066;DHT22;8137;48.952;8.970;2023-11-19T00:33:55;7.60;99.90
16066;DHT22;8137;48.952;8.970;2023-11-19T00:36:20;7.50;99.90
16066;DHT22;8137;48.952;8.970;2023-11-19T00:38:46;7.50;99.90
16066;DHT22;8137;48.952;8.970;2023-11-19T00:41:12;7.50;99.90
16066;DHT22;8137;48.952;8.970;2023-11-19T00:43:37;7.50;99.90
16066;DHT22;8137;48.952;8.970;2023-11-19T00:46:06;7.60;99.90
16066;DHT22;8137;48.952;8.970;2023-11-19T00:48:32;7.60;99.90
16066;DHT22;8137;48.952;8.970;2023-11-19T00:50:57;7.60;99.90
16066;DHT22;8137;48.952;8.970;2023-11-19T00:53:23;7.60;99.90
16066;DHT22;8137;48.952;8.970;2023-11-19T00:55:49;7.60;99.90
16066;DHT22;8137;48.952;8.970;2023-11-19T00:58:14;7.60;99.90
16066;DHT22;8137;48.952;8.970;2023-11-19T01:00:40;7.60;99.90
16066;DHT22;8137;48.952;8.970;2023-11-19T01:03:05;7.60;99.90
16066;DHT22;8137;48.952;8.970;2023-11-19T01:05:32;7.60;99.90
16066;DHT22;8137;48.952;8.970;2023-11-19T01:07:58;7.60;99.90
16066;DHT22;8137;48.952;8.970;2023-11-19T01:10:24;7.60;99.90
16066;DHT22;8137;48.952;8.970;2023-11-19T01:12:51;7.60;99.90
16066;DHT22;8137;48.952;8.970;2023-11-19T01:15:17;7.60;99.90
16066;DHT22;8137;48.952;8.970;2023-11-19T01:17:44;7.70;99.90
16066;DHT22;8137;48.952;8.970;2023-11-19T01:20:11;7.70;99.90
16066;DHT22;8137;48.952;8.970;2023-11-19T01:22:38;7.70;99.90
16066;DHT22;8137;48.952;8.970;2023-11-19T01:25:05;7.60;99.90
16066;DHT22;8137;48.952;8.970;2023-11-19T01:27:31;7.60;99.90
16066;DHT22;8137;48.952;8.970;2023-11-19T01:29:56;7.60;99.90
16066;DHT22;8137;48.952;8.970;2023-11-19T01:32:22;7.60;99.90
16066;DHT22;8137;48.952;8.970;2023-11-19T01:34:49;7.60;99.90
16066;DHT22;8137;48.952;8.970;2023-11-19T01:37:15;7.60;99.90
16066;DHT22;8137;48.952;8.970;2023-11-19T01:39:44;7.60;99.90
16066;DHT22;8137;48.952;8.970;2023-11-19T01:42:10;7.60;99.90
16066;DHT22;8137;48.952;8.970;2023-11-19T01:44:37;7.60;99.90
16066;DHT22;8137;48.952;8.970;2023-11-19T01:47:03;7.60;99.90
16066;DHT22;8137;48.952;8.970;2023-11-19T01:49:32;7.50;99.90
16066;DHT22;8137;48.952;8.970;2023-11-19T01:51:58;7.60;99.90
16066;DHT22;8137;48.952;8.970;2023-11-19T01:54:25;7.60;99.90
16066;DHT22;8137;48.952;8.970;2023-11-19T01:56:53;7.60;99.90
16066;DHT22;8137;48.952;8.970;2023-11-19T01:59:22;7.60;99.90
16066;DHT22;8137;48.952;8.970;2023-11-19T02:01:52;7.60;99.90
16066;DHT22;8137;48.952;8.970;2023-11-19T02:04:19;7.70;99.90
16066;DHT22;8137;48.952;8.970;2023-11-19T02:06:48;7.70;99.90
16066;DHT22;8137;48.952;8.970;2023-11-19T02:09:17;7.70;99.90
16066;DHT22;8137;48.952;8.970;2023-11-19T02:11:45;7.70;99.90
16066;DHT22;8137;48.952;8.970;2023-11-19T02:14:14;7.70;99.90
16066;DHT22;8137;48.952;8.970;2023-11-19T02:16:39;7.70;99.90
16066;DHT22;8137;48.952;8.970;2023-11-19T02:19:05;7.70;99.90
16066;DHT22;8137;48.952;8.970;2023-11-19T02:21:31;7.70;99.90
16066;DHT22;8137;48.952;8.970;2023-11-19T02:23:57;7.70;99.90
16066;DHT22;8137;48.952;8.970;2023-11-19T02:26:42;7.80;99.90
16066;DHT22;8137;48.952;8.970;2023-11-19T02:29:11;7.80;99.90
16066;DHT22;8137;48.952;8.970;2023-11-19T02:31:37;7.80;99.90
16066;DHT22;8137;48.952;8.970;2023-11-19T02:34:02;7.80;99.90
16066;DHT22;8137;48.952;8.970;2023-11-19T02:36:28;7.80;99.90
16066;DHT22;8137;48.952;8.970;2023-11-19T02:38:54;7.80;99.90
16066;DHT22;8137;48.952;8.970;2023-11-19T02:41:20;7.80;99.90
16066;DHT22;8137;48.952;8.970;2023-11-19T02:43:46;7.80;99.90
16066;DHT22;8137;48.952;8.970;2023-11-19T02:46:14;7.80;99.90
16066;DHT22;8137;48.952;8.970;2023-11-19T02:48:39;7.70;99.90
16066;DHT22;8137;48.952;8.970;2023-11-19T02:51:05;7.80;99.90
16066;DHT22;8137;48.952;8.970;2023-11-19T02:53:35;7.70;99.90
16066;DHT22;8137;48.952;8.970;2023-11-19T02:56:00;7.70;99.90
16066;DHT22;8137;48.952;8.970;2023-11-19T02:58:27;7.70;99.90
16066;DHT22;8137;48.952;8.970;2023-11-19T03:00:54;7.70;99.90
16066;DHT22;8137;48.952;8.970;2023-11-19T03:03:26;7.70;99.90
16066;DHT22;8137;48.952;8.970;2023-11-19T03:06:07;7.70;99.90
16066;DHT22;8137;48.952;8.970;2023-11-19T03:08:34;7.70;99.90
16066;DHT22;8137;48.952;8.970;2023-11-19T03:11:00;7.70;99.90
16066;DHT22;8137;48.952;8.970;2023-11-19T03:13:26;7.70;99.90
16066;DHT22;8137;48.952;8.970;2023-11-19T03:15:52;7.80;99.90
16066;DHT22;8137;48.952;8.970;2023-11-19T03:18:19;7.80;99.90
16066;DHT22;8137;48.952;8.970;2023-11-19T03:20:46;7.80;99.90
16066;DHT22;8137;48.952;8.970;2023-11-19T03:23:12;7.90;99.90
16066;DHT22;8137;48.952;8.970;2023-11-19T03:25:38;7.90;99.90
16066;DHT22;8137;48.952;8.970;2023-11-19T03:28:04;7.90;99.90
16066;DHT22;8137;48.952;8.970;2023-11-19T03:30:30;7.90;99.90
16066;DHT22;8137;48.952;8.970;2023-11-19T03:32:56;7.90;99.90
16066;DHT22;8137;48.952;8.970;2023-11-19T03:35:23;7.90;99.90
16066;DHT22;8137;48.952;8.970;2023-11-19T03:37:49;7.90;99.90
16066;DHT22;8137;48.952;8.970;2023-11-19T03:40:16;7.90;99.90
16066;DHT22;8137;48.952;8.970;2023-11-19T03:42:41;8.00;99.90
16066;DHT22;8137;48.952;8.970;2023-11-19T03:45:07;8.00;99.90
16066;DHT22;8137;48.952;8.970;2023-11-19T03:47:36;7.90;99.90
16066;DHT22;8137;48.952;8.970;2023-11-19T03:50:02;8.00;99.90
16066;DHT22;8137;48.952;8.970;2023-11-19T03:52:28;8.00;99.90
16066;DHT22;8137;48.952;8.970;2023-11-19T03:54:54;8.00;99.90
16066;DHT22;8137;48.952;8.970;2023-11-19T03:57:21;8.00;99.90
16066;DHT22;8137;48.952;8.970;2023-11-19T03:59:47;8.00;99.90
16066;DHT22;8137;48.952;8.970;2023-11-19T04:02:12;8.00;99.90
16066;DHT22;8137;48.952;8.970;2023-11-19T04:04:38;8.00;99.90
16066;DHT22;8137;48.952;8.970;2023-11-19T04:07:06;8.00;99.90
16066;DHT22;8137;48.952;8.970;2023-11-19T04:09:32;8.00;99.90
16066;DHT22;8137;48.952;8.970;2023-11-19T04:11:58;8.00;99.90
16066;DHT22;8137;48.952;8.970;2023-11-19T04:14:24;8.00;99.90
16066;DHT22;8137;48.952;8.970;2023-11-19T04:16:50;8.00;99.90
16066;DHT22;8137;48.952;8.970;2023-11-19T04:19:17;8.00;99.90
16066;DHT22;8137;48.952;8.970;2023-11-19T04:21:42;8.00;99.90
16066;DHT22;8137;48.952;8.970;2023-11-19T04:24:11;8.00;99.90
16066;DHT22;8137;48.952;8.970;2023-11-19T04:26:41;8.00;99.90
16066;DHT22;8137;48.952;8.970;2023-11-19T04:29:09;8.00;99.90
16066;DHT22;8137;48.952;8.970;2023-11-19T04:31:35;8.00;99.90
16066;DHT22;8137;48.952;8.970;2023-11-19T04:34:00;8.00;99.90
16066;DHT22;8137;48.952;8.970;2023-11-19T04:36:26;8.00;99.90
16066;DHT22;8137;48.952;8.970;2023-11-19T04:38:52;8.10;99.90
16066;DHT22;8137;48.952;8.970;2023-11-19T04:41:18;8.10;99.90
16066;DHT22;8137;48.952;8.970;2023-11-19T04:43:43;8.10;99.90
16066;DHT22;8137;48.952;8.970;2023-11-19T04:46:12;8.20;99.90
16066;DHT22;8137;48.952;8.970;2023-11-19T04:48:38;8.30;99.90
16066;DHT22;8137;48.952;8.970;2023-11-19T04:51:07;8.40;99.90
16066;DHT22;8137;48.952;8.970;2023-11-19T04:53:34;8.60;99.90
16066;DHT22;8137;48.952;8.970;2023-11-19T04:56:00;8.80;99.90
16066;DHT22;8137;48.952;8.970;2023-11-19T04:58:26;9.40;99.90
16066;DHT22;8137;48.952;8.970;2023-11-19T05:00:54;10.00;99.90
16066;DHT22;8137;48.952;8.970;2023-11-19T05:03:19;10.40;99.90
16066;DHT22;8137;48.952;8.970;2023-11-19T05:05:45;10.60;99.90
16066;DHT22;8137;48.952;8.970;2023-11-19T05:08:10;10.80;99.90
16066;DHT22;8137;48.952;8.970;2023-11-19T05:10:37;10.90;99.90
16066;DHT22;8137;48.952;8.970;2023-11-19T05:13:02;11.00;99.90
16066;DHT22;8137;48.952;8.970;2023-11-19T05:15:28;11.10;99.90
16066;DHT22;8137;48.952;8.970;2023-11-19T05:17:53;11.20;99.90
16066;DHT22;8137;48.952;8.970;2023-11-19T05:20:19;11.20;99.90
16066;DHT22;8137;48.952;8.970;2023-11-19T05:22:45;11.30;99.90
16066;DHT22;8137;48.952;8.970;2023-11-19T05:25:11;11.30;99.90
16066;DHT22;8137;48.952;8.970;2023-11-19T05:27:37;11.40;99.90
16066;DHT22;8137;48.952;8.970;2023-11-19T05:30:05;11.50;99.90
16066;DHT22;8137;48.952;8.970;2023-11-19T05:32:34;11.50;99.90
16066;DHT22;8137;48.952;8.970;2023-11-19T05:35:00;11.50;99.90
16066;DHT22;8137;48.952;8.970;2023-11-19T05:37:25;11.50;99.90
16066;DHT22;8137;48.952;8.970;2023-11-19T05:39:51;11.60;99.90
16066;DHT22;8137;48.952;8.970;2023-11-19T05:42:17;11.60;99.90
16066;DHT22;8137;48.952;8.970;2023-11-19T05:44:43;11.60;99.90
16066;DHT22;8137;48.952;8.970;2023-11-19T05:47:08;11.70;99.90
16066;DHT22;8137;48.952;8.970;2023-11-19T05:49:34;11.70;99.90
16066;DHT22;8137;48.952;8.970;2023-11-19T05:52:00;11.70;99.90
16066;DHT22;8137;48.952;8.970;2023-11-19T05:54:27;11.70;99.90
16066;DHT22;8137;48.952;8.970;2023-11-19T05:56:52;11.60;99.90
16066;DHT22;8137;48.952;8.970;2023-11-19T05:59:20;11.70;99.90
16066;DHT22;8137;48.952;8.970;2023-11-19T06:01:45;11.70;99.90
16066;DHT22;8137;48.952;8.970;2023-11-19T06:04:11;11.70;99.90
16066;DHT22;8137;48.952;8.970;2023-11-19T06:06:37;11.80;99.90
16066;DHT22;8137;48.952;8.970;2023-11-19T06:09:03;11.80;99.90
16066;DHT22;8137;48.952;8.970;2023-11-19T06:11:29;11.80;99.90
16066;DHT22;8137;48.952;8.970;2023-11-19T06:13:55;11.80;99.90
16066;DHT22;8137;48.952;8.970;2023-11-19T06:16:21;11.80;99.90
16066;DHT22;8137;48.952;8.970;2023-11-19T06:18:47;11.80;99.90
16066;DHT22;8137;48.952;8.970;2023-11-19T06:21:13;11.70;99.90
16066;DHT22;8137;48.952;8.970;2023-11-19T06:23:38;11.60;99.90
16066;DHT22;8137;48.952;8.970;2023-11-19T06:26:04;11.70;99.90
16066;DHT22;8137;48.952;8.970;2023-11-19T06:28:31;11.70;99.90
16066;DHT22;8137;48.952;8.970;2023-11-19T06:30:56;11.70;99.90
16066;DHT22;8137;48.952;8.970;2023-11-19T06:33:26;11.70;99.90
16066;DHT22;8137;48.952;8.970;2023-11-19T06:35:52;11.80;99.90
16066;DHT22;8137;48.952;8.970;2023-11-19T06:38:18;11.90;99.90
16066;DHT22;8137;48.952;8.970;2023-11-19T06:40:44;11.80;99.90
16066;DHT22;8137;48.952;8.970;2023-11-19T06:43:09;11.80;99.90
16066;DHT22;8137;48.952;8.970;2023-11-19T06:45:35;11.80;99.90
16066;DHT22;8137;48.952;8.970;2023-11-19T06:48:03;11.80;99.90
16066;DHT22;8137;48.952;8.970;2023-11-19T06:50:30;11.80;99.90
16066;DHT22;8137;48.952;8.970;2023-11-19T06:52:55;11.70;99.90
16066;DHT22;8137;48.952;8.970;2023-11-19T06:55:21;11.70;99.90
16066;DHT22;8137;48.952;8.970;2023-11-19T06:57:47;11.80;99.90
16066;DHT22;8137;48.952;8.970;2023-11-19T07:00:12;11.80;99.90
16066;DHT22;8137;48.952;8.970;2023-11-19T07:02:38;11.80;99.90
16066;DHT22;8137;48.952;8.970;2023-11-19T07:05:05;11.80;99.90
16066;DHT22;8137;48.952;8.970;2023-11-19T07:07:34;11.80;99.90
16066;DHT22;8137;48.952;8.970;2023-11-19T07:10:00;11.80;99.90
16066;DHT22;8137;48.952;8.970;2023-11-19T07:12:27;11.70;99.90
16066;DHT22;8137;48.952;8.970;2023-11-19T07:14:53;11.70;99.90
16066;DHT22;8137;48.952;8.970;2023-11-19T07:17:19;11.70;99.90
16066;DHT22;8137;48.952;8.970;2023-11-19T07:19:46;11.80;99.90
16066;DHT22;8137;48.952;8.970;2023-11-19T07:22:12;11.80;99.90
16066;DHT22;8137;48.952;8.970;2023-11-19T07:24:39;11.90;99.90
16066;DHT22;8137;48.952;8.970;2023-11-19T07:27:06;11.90;99.90
16066;DHT22;8137;48.952;8.970;2023-11-19T07:29:32;11.90;99.90
16066;DHT22;8137;48.952;8.970;2023-11-19T07:31:57;11.90;99.90
16066;DHT22;8137;48.952;8.970;2023-11-19T07:34:24;11.90;99.90
16066;DHT22;8137;48.952;8.970;2023-11-19T07:36:50;11.90;99.90
16066;DHT22;8137;48.952;8.970;2023-11-19T07:39:15;11.90;99.90
16066;DHT22;8137;48.952;8.970;2023-11-19T07:41:41;11.90;99.90
16066;DHT22;8137;48.952;8.970;2023-11-19T07:44:07;12.00;99.90
16066;DHT22;8137;48.952;8.970;2023-11-19T07:46:32;12.00;99.90
16066;DHT22;8137;48.952;8.970;2023-11-19T07:48:58;12.10;99.90
16066;DHT22;8137;48.952;8.970;2023-11-19T07:51:23;12.20;99.90
16066;DHT22;8137;48.952;8.970;2023-11-19T07:53:49;12.30;99.90
16066;DHT22;8137;48.952;8.970;2023-11-19T07:56:15;12.30;99.90
16066;DHT22;8137;48.952;8.970;2023-11-19T07:58:40;12.40;99.90
16066;DHT22;8137;48.952;8.970;2023-11-19T08:01:07;12.40;99.90
16066;DHT22;8137;48.952;8.970;2023-11-19T08:03:32;12.40;99.90
16066;DHT22;8137;48.952;8.970;2023-11-19T08:06:02;12.50;99.90
16066;DHT22;8137;48.952;8.970;2023-11-19T08:08:27;12.50;99.90
16066;DHT22;8137;48.952;8.970;2023-11-19T08:10:56;12.60;99.90
16066;DHT22;8137;48.952;8.970;2023-11-19T08:13:23;12.80;99.90
16066;DHT22;8137;48.952;8.970;2023-11-19T08:15:49;13.00;99.90
16066;DHT22;8137;48.952;8.970;2023-11-19T08:18:15;13.10;99.90
16066;DHT22;8137;48.952;8.970;2023-11-19T08:20:40;13.20;99.90
16066;DHT22;8137;48.952;8.970;2023-11-19T08:23:06;13.30;99.90
16066;DHT22;8137;48.952;8.970;2023-11-19T08:25:32;13.40;99.90
16066;DHT22;8137;48.952;8.970;2023-11-19T08:27:59;13.40;99.90
16066;DHT22;8137;48.952;8.970;2023-11-19T08:30:25;13.40;99.90
16066;DHT22;8137;48.952;8.970;2023-11-19T08:32:51;13.40;99.90
16066;DHT22;8137;48.952;8.970;2023-11-19T08:35:16;13.40;99.90
16066;DHT22;8137;48.952;8.970;2023-11-19T08:37:42;13.40;99.90
16066;DHT22;8137;48.952;8.970;2023-11-19T08:40:09;13.40;99.90
16066;DHT22;8137;48.952;8.970;2023-11-19T08:42:34;13.40;99.90
16066;DHT22;8137;48.952;8.970;2023-11-19T08:45:00;13.40;99.90
16066;DHT22;8137;48.952;8.970;2023-11-19T08:47:26;13.40;99.90
16066;DHT22;8137;48.952;8.970;2023-11-19T08:49:52;13.40;99.90
16066;DHT22;8137;48.952;8.970;2023-11-19T08:52:18;13.40;99.90
16066;DHT22;8137;48.952;8.970;2023-11-19T08:54:44;13.50;99.90
16066;DHT22;8137;48.952;8.970;2023-11-19T08:57:09;13.60;99.90
16066;DHT22;8137;48.952;8.970;2023-11-19T08:59:35;13.60;99.90
16066;DHT22;8137;48.952;8.970;2023-11-19T09:02:03;13.70;99.90
16066;DHT22;8137;48.952;8.970;2023-11-19T09:04:29;13.80;99.90
16066;DHT22;8137;48.952;8.970;2023-11-19T09:06:54;13.90;99.90
16066;DHT22;8137;48.952;8.970;2023-11-19T09:09:21;14.00;99.90
16066;DHT22;8137;48.952;8.970;2023-11-19T09:11:46;14.10;99.90
16066;DHT22;8137;48.952;8.970;2023-11-19T09:14:12;14.20;99.90
16066;DHT22;8137;48.952;8.970;2023-11-19T09:16:38;14.30;99.90
16066;DHT22;8137;48.952;8.970;2023-11-19T09:19:03;14.30;99.90
16066;DHT22;8137;48.952;8.970;2023-11-19T09:21:29;14.30;99.90
16066;DHT22;8137;48.952;8.970;2023-11-19T09:23:55;14.30;99.90
16066;DHT22;8137;48.952;8.970;2023-11-19T09:26:20;14.30;99.90
16066;DHT22;8137;48.952;8.970;2023-11-19T09:28:46;14.10;99.90
16066;DHT22;8137;48.952;8.970;2023-11-19T09:31:16;13.90;99.90
16066;DHT22;8137;48.952;8.970;2023-11-19T09:33:42;13.80;99.90
16066;DHT22;8137;48.952;8.970;2023-11-19T09:36:08;13.70;99.90
16066;DHT22;8137;48.952;8.970;2023-11-19T09:38:34;13.60;99.90
16066;DHT22;8137;48.952;8.970;2023-11-19T09:41:04;13.60;99.90
16066;DHT22;8137;48.952;8.970;2023-11-19T09:43:33;13.70;99.90
16066;DHT22;8137;48.952;8.970;2023-11-19T09:46:04;13.80;99.90
16066;DHT22;8137;48.952;8.970;2023-11-19T09:48:33;13.90;99.90
16066;DHT22;8137;48.952;8.970;2023-11-19T09:51:02;13.90;99.90
16066;DHT22;8137;48.952;8.970;2023-11-19T09:53:28;14.00;99.90
16066;DHT22;8137;48.952;8.970;2023-11-19T09:55:55;14.10;99.90
16066;DHT22;8137;48.952;8.970;2023-11-19T09:58:21;14.30;99.90
16066;DHT22;8137;48.952;8.970;2023-11-19T10:00:47;14.40;99.90
16066;DHT22;8137;48.952;8.970;2023-11-19T10:03:14;14.50;99.90
16066;DHT22;8137;48.952;8.970;2023-11-19T10:05:39;14.60;99.90
16066;DHT22;8137;48.952;8.970;2023-11-19T10:08:07;14.60;99.90
16066;DHT22;8137;48.952;8.970;2023-11-19T10:10:33;14.70;99.90
16066;DHT22;8137;48.952;8.970;2023-11-19T10:13:00;14.80;99.90
16066;DHT22;8137;48.952;8.970;2023-11-19T10:15:26;14.80;99.90
16066;DHT22;8137;48.952;8.970;2023-11-19T10:17:56;14.90;99.90
16066;DHT22;8137;48.952;8.970;2023-11-19T10:20:22;15.00;99.90
16066;DHT22;8137;48.952;8.970;2023-11-19T10:22:48;15.00;99.90
16066;DHT22;8137;48.952;8.970;2023-11-19T10:25:24;15.00;99.90
16066;DHT22;8137;48.952;8.970;2023-11-19T10:27:51;15.00;99.90
16066;DHT22;8137;48.952;8.970;2023-11-19T10:30:20;14.90;99.90
16066;DHT22;8137;48.952;8.970;2023-11-19T10:32:45;15.00;99.90
16066;DHT22;8137;48.952;8.970;2023-11-19T10:35:11;15.00;99.90
16066;DHT22;8137;48.952;8.970;2023-11-19T10:37:39;15.00;99.90
16066;DHT22;8137;48.952;8.970;2023-11-19T10:40:05;15.00;99.90
16066;DHT22;8137;48.952;8.970;2023-11-19T10:42:31;15.00;99.90
16066;DHT22;8137;48.952;8.970;2023-11-19T10:44:56;15.10;99.90
16066;DHT22;8137;48.952;8.970;2023-11-19T10:47:23;15.10;99.90
16066;DHT22;8137;48.952;8.970;2023-11-19T10:49:49;15.20;99.90
16066;DHT22;8137;48.952;8.970;2023-11-19T10:52:18;15.20;99.90
16066;DHT22;8137;48.952;8.970;2023-11-19T10:54:50;15.20;99.90
16066;DHT22;8137;48.952;8.970;2023-11-19T10:57:20;15.20;99.90
16066;DHT22;8137;48.952;8.970;2023-11-19T10:59:47;15.20;99.90
16066;DHT22;8137;48.952;8.970;2023-11-19T11:02:17;15.30;99.90
16066;DHT22;8137;48.952;8.970;2023-11-19T11:04:47;15.30;99.90
16066;DHT22;8137;48.952;8.970;2023-11-19T11:07:14;15.30;99.90
16066;DHT22;8137;48.952;8.970;2023-11-19T11:09:41;15.40;99.90
16066;DHT22;8137;48.952;8.970;2023-11-19T11:12:09;15.40;99.90
16066;DHT22;8137;48.952;8.970;2023-11-19T11:14:38;15.30;99.90
16066;DHT22;8137;48.952;8.970;2023-11-19T11:17:06;15.20;99.90
16066;DHT22;8137;48.952;8.970;2023-11-19T11:19:34;15.20;99.90
16066;DHT22;8137;48.952;8.970;2023-11-19T11:22:00;15.30;99.90
16066;DHT22;8137;48.952;8.970;2023-11-19T11:27:43;15.00;99.90
16066;DHT22;8137;48.952;8.970;2023-11-19T11:39:40;15.20;99.90
16066;DHT22;8137;48.952;8.970;2023-11-19T11:45:03;15.40;99.90
16066;DHT22;8137;48.952;8.970;2023-11-19T11:50:14;15.40;99.90
16066;DHT22;8137;48.952;8.970;2023-11-19T11:55:25;15.30;99.90
16066;DHT22;8137;48.952;8.970;2023-11-19T11:57:51;15.40;99.90
16066;DHT22;8137;48.952;8.970;2023-11-19T12:00:29;15.40;99.90
16066;DHT22;8137;48.952;8.970;2023-11-19T12:02:56;15.40;99.90
16066;DHT22;8137;48.952;8.970;2023-11-19T12:05:22;15.40;99.90
16066;DHT22;8137;48.952;8.970;2023-11-19T12:07:57;15.40;99.90
16066;DHT22;8137;48.952;8.970;2023-11-19T12:10:25;15.40;99.90
16066;DHT22;8137;48.952;8.970;2023-11-19T12:12:58;15.40;99.90
16066;DHT22;8137;48.952;8.970;2023-11-19T12:15:24;15.40;99.90
16066;DHT22;8137;48.952;8.970;2023-11-19T12:17:52;15.40;99.90
16066;DHT22;8137;48.952;8.970;2023-11-19T12:20:20;15.50;99.90
16066;DHT22;8137;48.952;8.970;2023-11-19T12:22:47;15.50;99.90
16066;DHT22;8137;48.952;8.970;2023-11-19T12:25:15;15.50;99.90
16066;DHT22;8137;48.952;8.970;2023-11-19T12:27:45;15.50;99.90
16066;DHT22;8137;48.952;8.970;2023-11-19T12:30:11;15.50;99.90
16066;DHT22;8137;48.952;8.970;2023-11-19T12:32:44;15.60;99.90
16066;DHT22;8137;48.952;8.970;2023-11-19T12:35:11;15.60;99.90
16066;DHT22;8137;48.952;8.970;2023-11-19T12:40:15;15.60;99.90
16066;DHT22;8137;48.952;8.970;2023-11-19T12:42:43;15.60;99.90
16066;DHT22;8137;48.952;8.970;2023-11-19T12:45:09;15.60;99.90
16066;DHT22;8137;48.952;8.970;2023-11-19T12:47:43;15.60;99.90
16066;DHT22;8137;48.952;8.970;2023-11-19T12:50:09;15.60;99.90
16066;DHT22;8137;48.952;8.970;2023-11-19T12:52:36;15.60;99.90
16066;DHT22;8137;48.952;8.970;2023-11-19T12:55:03;15.40;99.90
16066;DHT22;8137;48.952;8.970;2023-11-19T12:57:41;15.40;99.90
16066;DHT22;8137;48.952;8.970;2023-11-19T13:00:18;15.40;99.90
16066;DHT22;8137;48.952;8.970;2023-11-19T13:02:50;15.40;99.90
16066;DHT22;8137;48.952;8.970;2023-11-19T13:05:26;15.40;99.90
16066;DHT22;8137;48.952;8.970;2023-11-19T13:08:10;15.50;99.90
16066;DHT22;8137;48.952;8.970;2023-11-19T13:13:16;15.50;99.90
16066;DHT22;8137;48.952;8.970;2023-11-19T13:15:42;15.50;99.90
16066;DHT22;8137;48.952;8.970;2023-11-19T13:18:10;15.50;99.90
16066;DHT22;8137;48.952;8.970;2023-11-19T13:20:36;15.40;99.90
16066;DHT22;8137;48.952;8.970;2023-11-19T13:23:03;15.50;99.90
16066;DHT22;8137;48.952;8.970;2023-11-19T13:25:30;15.50;99.90
16066;DHT22;8137;48.952;8.970;2023-11-19T13:27:57;15.50;99.90
16066;DHT22;8137;48.952;8.970;2023-11-19T13:30:24;15.50;99.90
16066;DHT22;8137;48.952;8.970;2023-11-19T13:32:50;15.50;99.90
16066;DHT22;8137;48.952;8.970;2023-11-19T13:35:17;15.50;99.90
16066;DHT22;8137;48.952;8.970;2023-11-19T13:37:44;15.50;99.90
16066;DHT22;8137;48.952;8.970;2023-11-19T13:40:10;15.50;99.90
16066;DHT22;8137;48.952;8.970;2023-11-19T13:42:39;15.50;99.90
16066;DHT22;8137;48.952;8.970;2023-11-19T13:45:09;15.40;99.90
16066;DHT22;8137;48.952;8.970;2023-11-19T13:47:38;15.40;99.90
16066;DHT22;8137;48.952;8.970;2023-11-19T13:50:10;15.20;99.90
16066;DHT22;8137;48.952;8.970;2023-11-19T13:52:40;15.20;99.90
16066;DHT22;8137;48.952;8.970;2023-11-19T13:55:08;15.10;99.90
16066;DHT22;8137;48.952;8.970;2023-11-19T13:57:35;15.10;99.90
16066;DHT22;8137;48.952;8.970;2023-11-19T14:00:05;15.10;99.90
16066;DHT22;8137;48.952;8.970;2023-11-19T14:02:50;15.10;99.90
16066;DHT22;8137;48.952;8.970;2023-11-19T14:05:17;15.20;99.90
16066;DHT22;8137;48.952;8.970;2023-11-19T14:07:43;15.20;99.90
16066;DHT22;8137;48.952;8.970;2023-11-19T14:10:09;15.20;99.90
16066;DHT22;8137;48.952;8.970;2023-11-19T14:12:38;15.10;99.90
16066;DHT22;8137;48.952;8.970;2023-11-19T14:15:08;15.10;99.90
16066;DHT22;8137;48.952;8.970;2023-11-19T14:17:42;15.10;99.90
16066;DHT22;8137;48.952;8.970;2023-11-19T14:20:09;15.10;99.90
16066;DHT22;8137;48.952;8.970;2023-11-19T14:22:41;15.10;99.90
16066;DHT22;8137;48.952;8.970;2023-11-19T14:25:08;15.00;99.90
16066;DHT22;8137;48.952;8.970;2023-11-19T14:27:40;15.00;99.90
16066;DHT22;8137;48.952;8.970;2023-11-19T14:30:07;14.90;99.90
16066;DHT22;8137;48.952;8.970;2023-11-19T14:32:33;14.80;99.90
16066;DHT22;8137;48.952;8.970;2023-11-19T14:35:00;14.80;99.90
16066;DHT22;8137;48.952;8.970;2023-11-19T14:37:26;14.80;99.90
16066;DHT22;8137;48.952;8.970;2023-11-19T14:39:51;14.70;99.90
16066;DHT22;8137;48.952;8.970;2023-11-19T14:42:17;14.70;99.90
16066;DHT22;8137;48.952;8.970;2023-11-19T14:44:43;14.80;99.90
16066;DHT22;8137;48.952;8.970;2023-11-19T14:47:08;14.80;99.90
16066;DHT22;8137;48.952;8.970;2023-11-19T14:49:37;14.80;99.90
16066;DHT22;8137;48.952;8.970;2023-11-19T14:52:05;14.80;99.90
16066;DHT22;8137;48.952;8.970;2023-11-19T14:54:31;14.80;99.90
16066;DHT22;8137;48.952;8.970;2023-11-19T14:56:57;14.80;99.90
16066;DHT22;8137;48.952;8.970;2023-11-19T14:59:24;14.70;99.90
16066;DHT22;8137;48.952;8.970;2023-11-19T15:01:50;14.70;99.90
16066;DHT22;8137;48.952;8.970;2023-11-19T15:04:15;14.70;99.90
16066;DHT22;8137;48.952;8.970;2023-11-19T15:06:42;14.70;99.90
16066;DHT22;8137;48.952;8.970;2023-11-19T15:09:07;14.70;99.90
16066;DHT22;8137;48.952;8.970;2023-11-19T15:11:35;14.60;99.90
16066;DHT22;8137;48.952;8.970;2023-11-19T15:14:00;14.40;99.90
16066;DHT22;8137;48.952;8.970;2023-11-19T15:16:26;14.30;99.90
16066;DHT22;8137;48.952;8.970;2023-11-19T15:18:59;14.20;99.90
16066;DHT22;8137;48.952;8.970;2023-11-19T15:21:28;14.10;99.90
16066;DHT22;8137;48.952;8.970;2023-11-19T15:23:55;14.00;99.90
16066;DHT22;8137;48.952;8.970;2023-11-19T15:26:21;13.90;99.90
16066;DHT22;8137;48.952;8.970;2023-11-19T15:28:47;13.90;99.90
16066;DHT22;8137;48.952;8.970;2023-11-19T15:31:12;13.80;99.90
16066;DHT22;8137;48.952;8.970;2023-11-19T15:33:40;13.70;99.90
16066;DHT22;8137;48.952;8.970;2023-11-19T15:36:06;13.70;99.90
16066;DHT22;8137;48.952;8.970;2023-11-19T15:38:36;13.70;99.90
16066;DHT22;8137;48.952;8.970;2023-11-19T15:41:01;13.60;99.90
16066;DHT22;8137;48.952;8.970;2023-11-19T15:43:30;13.60;99.90
16066;DHT22;8137;48.952;8.970;2023-11-19T15:45:56;13.60;99.90
16066;DHT22;8137;48.952;8.970;2023-11-19T15:48:22;13.50;99.90
16066;DHT22;8137;48.952;8.970;2023-11-19T15:50:47;13.30;99.90
16066;DHT22;8137;48.952;8.970;2023-11-19T15:53:13;13.20;99.90
16066;DHT22;8137;48.952;8.970;2023-11-19T15:55:39;13.10;99.90
16066;DHT22;8137;48.952;8.970;2023-11-19T15:58:04;13.00;99.90
16066;DHT22;8137;48.952;8.970;2023-11-19T16:00:30;12.90;99.90
16066;DHT22;8137;48.952;8.970;2023-11-19T16:02:57;12.90;99.90
16066;DHT22;8137;48.952;8.970;2023-11-19T16:05:23;12.80;99.90
16066;DHT22;8137;48.952;8.970;2023-11-19T16:07:51;12.70;99.90
16066;DHT22;8137;48.952;8.970;2023-11-19T16:10:17;12.70;99.90
16066;DHT22;8137;48.952;8.970;2023-11-19T16:12:48;12.60;99.90
16066;DHT22;8137;48.952;8.970;2023-11-19T16:15:13;12.50;99.90